sensor_id;sensor_type;location;lat;lon;timestamp;temperature;humidity
64034;SHT31;50280;49.864;8.638;2022-11-23T00:02:17;7.44;82.20
64034;SHT31;50280;49.864;8.638;2022-11-23T00:04:49;7.41;82.35
64034;SHT31;50280;49.864;8.638;2022-11-23T00:07:23;7.41;82.52
64034;SHT31;50280;49.864;8.638;2022-11-23T00:09:55;7.35;82.43
64034;SHT31;50280;49.864;8.638;2022-11-23T00:12:27;7.35;82.46
64034;SHT31;50280;49.864;8.638;2022-11-23T00:15:00;7.35;82.45
64034;SHT31;50280;49.864;8.638;2022-11-23T00:17:32;7.37;82.35
64034;SHT31;50280;49.864;8.638;2022-11-23T00:20:07;7.38;82.27
64034;SHT31;50280;49.864;8.638;2022-11-23T00:22:41;7.40;82.30
64034;SHT31;50280;49.864;8.638;2022-11-23T00:25:14;7.38;82.17
64034;SHT31;50280;49.864;8.638;2022-11-23T00:27:46;7.40;82.26
64034;SHT31;50280;49.864;8.638;2022-11-23T00:30:20;7.37;82.20
64034;SHT31;50280;49.864;8.638;2022-11-23T00:32:53;7.37;82.31
64034;SHT31;50280;49.864;8.638;2022-11-23T00:35:26;7.35;82.35
64034;SHT31;50280;49.864;8.638;2022-11-23T00:38:00;7.33;82.38
64034;SHT31;50280;49.864;8.638;2022-11-23T00:40:32;7.31;82.44
64034;SHT31;50280;49.864;8.638;2022-11-23T00:43:04;7.31;82.55
64034;SHT31;50280;49.864;8.638;2022-11-23T00:45:37;7.30;82.51
64034;SHT31;50280;49.864;8.638;2022-11-23T00:48:09;7.31;82.55
64034;SHT31;50280;49.864;8.638;2022-11-23T00:50:42;7.31;82.65
64034;SHT31;50280;49.864;8.638;2022-11-23T00:53:15;7.30;82.59
64034;SHT31;50280;49.864;8.638;2022-11-23T00:55:50;7.30;82.69
64034;SHT31;50280;49.864;8.638;2022-11-23T00:58:23;7.31;82.57
64034;SHT31;50280;49.864;8.638;2022-11-23T01:01:02;7.34;82.61
64034;SHT31;50280;49.864;8.638;2022-11-23T01:03:39;7.37;82.59
64034;SHT31;50280;49.864;8.638;2022-11-23T01:06:16;7.35;82.37
64034;SHT31;50280;49.864;8.638;2022-11-23T01:08:54;7.38;82.30
64034;SHT31;50280;49.864;8.638;2022-11-23T01:11:30;7.40;82.28
64034;SHT31;50280;49.864;8.638;2022-11-23T01:14:03;7.41;82.20
64034;SHT31;50280;49.864;8.638;2022-11-23T01:16:38;7.46;82.05
64034;SHT31;50280;49.864;8.638;2022-11-23T01:19:14;7.46;81.94
64034;SHT31;50280;49.864;8.638;2022-11-23T01:21:49;7.50;81.65
64034;SHT31;50280;49.864;8.638;2022-11-23T01:24:23;7.54;81.60
64034;SHT31;50280;49.864;8.638;2022-11-23T01:26:56;7.57;81.51
64034;SHT31;50280;49.864;8.638;2022-11-23T01:29:28;7.60;81.35
64034;SHT31;50280;49.864;8.638;2022-11-23T01:32:01;7.61;81.26
64034;SHT31;50280;49.864;8.638;2022-11-23T01:34:33;7.64;81.27
64034;SHT31;50280;49.864;8.638;2022-11-23T01:37:05;7.65;81.20
64034;SHT31;50280;49.864;8.638;2022-11-23T01:39:39;7.65;81.01
64034;SHT31;50280;49.864;8.638;2022-11-23T01:42:11;7.67;80.88
64034;SHT31;50280;49.864;8.638;2022-11-23T01:44:43;7.72;80.78
64034;SHT31;50280;49.864;8.638;2022-11-23T01:47:16;7.74;80.66
64034;SHT31;50280;49.864;8.638;2022-11-23T01:49:50;7.74;80.50
64034;SHT31;50280;49.864;8.638;2022-11-23T01:52:25;7.78;80.51
64034;SHT31;50280;49.864;8.638;2022-11-23T01:54:59;7.79;80.39
64034;SHT31;50280;49.864;8.638;2022-11-23T01:57:35;7.81;80.29
64034;SHT31;50280;49.864;8.638;2022-11-23T02:00:13;7.79;80.38
64034;SHT31;50280;49.864;8.638;2022-11-23T02:02:50;7.78;80.24
64034;SHT31;50280;49.864;8.638;2022-11-23T02:05:31;7.79;80.25
64034;SHT31;50280;49.864;8.638;2022-11-23T02:08:10;7.79;80.30
64034;SHT31;50280;49.864;8.638;2022-11-23T02:10:47;7.75;80.48
64034;SHT31;50280;49.864;8.638;2022-11-23T02:13:19;7.77;80.63
64034;SHT31;50280;49.864;8.638;2022-11-23T02:15:55;7.77;80.62
64034;SHT31;50280;49.864;8.638;2022-11-23T02:18:31;7.72;80.52
64034;SHT31;50280;49.864;8.638;2022-11-23T02:21:08;7.72;80.76
64034;SHT31;50280;49.864;8.638;2022-11-23T02:23:46;7.71;80.81
64034;SHT31;50280;49.864;8.638;2022-11-23T02:26:33;7.68;81.18
64034;SHT31;50280;49.864;8.638;2022-11-23T02:29:10;7.65;81.53
64034;SHT31;50280;49.864;8.638;2022-11-23T02:31:49;7.60;81.93
64034;SHT31;50280;49.864;8.638;2022-11-23T02:34:21;7.55;82.54
64034;SHT31;50280;49.864;8.638;2022-11-23T02:36:55;7.51;82.31
64034;SHT31;50280;49.864;8.638;2022-11-23T02:39:33;7.51;82.43
64034;SHT31;50280;49.864;8.638;2022-11-23T02:42:10;7.47;82.40
64034;SHT31;50280;49.864;8.638;2022-11-23T02:44:47;7.44;82.29
64034;SHT31;50280;49.864;8.638;2022-11-23T02:47:31;7.44;82.29
64034;SHT31;50280;49.864;8.638;2022-11-23T02:50:04;7.43;82.30
64034;SHT31;50280;49.864;8.638;2022-11-23T02:52:37;7.46;82.68
64034;SHT31;50280;49.864;8.638;2022-11-23T02:55:09;7.41;82.97
64034;SHT31;50280;49.864;8.638;2022-11-23T02:57:43;7.40;82.73
64034;SHT31;50280;49.864;8.638;2022-11-23T03:00:16;7.40;82.81
64034;SHT31;50280;49.864;8.638;2022-11-23T03:02:49;7.38;82.74
64034;SHT31;50280;49.864;8.638;2022-11-23T03:05:21;7.37;82.64
64034;SHT31;50280;49.864;8.638;2022-11-23T03:07:54;7.37;82.59
64034;SHT31;50280;49.864;8.638;2022-11-23T03:10:26;7.37;82.64
64034;SHT31;50280;49.864;8.638;2022-11-23T03:13:00;7.37;82.47
64034;SHT31;50280;49.864;8.638;2022-11-23T03:15:33;7.38;82.38
64034;SHT31;50280;49.864;8.638;2022-11-23T03:18:05;7.40;82.54
64034;SHT31;50280;49.864;8.638;2022-11-23T03:20:37;7.40;82.20
64034;SHT31;50280;49.864;8.638;2022-11-23T03:23:10;7.40;82.31
64034;SHT31;50280;49.864;8.638;2022-11-23T03:25:42;7.41;82.38
64034;SHT31;50280;49.864;8.638;2022-11-23T03:28:16;7.38;82.22
64034;SHT31;50280;49.864;8.638;2022-11-23T03:30:48;7.41;82.24
64034;SHT31;50280;49.864;8.638;2022-11-23T03:33:21;7.41;82.25
64034;SHT31;50280;49.864;8.638;2022-11-23T03:35:53;7.41;82.13
64034;SHT31;50280;49.864;8.638;2022-11-23T03:38:26;7.43;82.18
64034;SHT31;50280;49.864;8.638;2022-11-23T03:40:59;7.41;82.13
64034;SHT31;50280;49.864;8.638;2022-11-23T03:43:32;7.41;82.17
64034;SHT31;50280;49.864;8.638;2022-11-23T03:46:05;7.43;82.12
64034;SHT31;50280;49.864;8.638;2022-11-23T03:48:37;7.41;82.11
64034;SHT31;50280;49.864;8.638;2022-11-23T03:51:09;7.41;82.08
64034;SHT31;50280;49.864;8.638;2022-11-23T03:53:42;7.41;82.14
64034;SHT31;50280;49.864;8.638;2022-11-23T03:56:14;7.43;82.00
64034;SHT31;50280;49.864;8.638;2022-11-23T03:58:48;7.43;82.00
64034;SHT31;50280;49.864;8.638;2022-11-23T04:01:20;7.44;82.04
64034;SHT31;50280;49.864;8.638;2022-11-23T04:03:53;7.43;81.87
64034;SHT31;50280;49.864;8.638;2022-11-23T04:06:25;7.38;81.91
64034;SHT31;50280;49.864;8.638;2022-11-23T04:08:58;7.43;81.97
64034;SHT31;50280;49.864;8.638;2022-11-23T04:11:31;7.41;81.94
64034;SHT31;50280;49.864;8.638;2022-11-23T04:14:05;7.43;81.95
64034;SHT31;50280;49.864;8.638;2022-11-23T06:19:00;7.24;82.66
64034;SHT31;50280;49.864;8.638;2022-11-23T06:21:33;7.26;82.60
64034;SHT31;50280;49.864;8.638;2022-11-23T06:24:05;7.24;82.52
64034;SHT31;50280;49.864;8.638;2022-11-23T06:26:38;7.26;82.44
64034;SHT31;50280;49.864;8.638;2022-11-23T06:29:11;7.26;82.41
64034;SHT31;50280;49.864;8.638;2022-11-23T06:31:43;7.27;82.40
64034;SHT31;50280;49.864;8.638;2022-11-23T06:34:17;7.26;82.30
64034;SHT31;50280;49.864;8.638;2022-11-23T06:36:50;7.27;82.38
64034;SHT31;50280;49.864;8.638;2022-11-23T06:39:22;7.26;82.28
64034;SHT31;50280;49.864;8.638;2022-11-23T06:41:54;7.27;82.17
64034;SHT31;50280;49.864;8.638;2022-11-23T06:44:27;7.28;82.01
64034;SHT31;50280;49.864;8.638;2022-11-23T06:46:59;7.30;81.99
64034;SHT31;50280;49.864;8.638;2022-11-23T06:49:33;7.31;81.77
64034;SHT31;50280;49.864;8.638;2022-11-23T06:52:05;7.33;81.60
64034;SHT31;50280;49.864;8.638;2022-11-23T06:54:37;7.34;81.48
64034;SHT31;50280;49.864;8.638;2022-11-23T06:57:10;7.34;81.40
64034;SHT31;50280;49.864;8.638;2022-11-23T06:59:42;7.37;81.24
64034;SHT31;50280;49.864;8.638;2022-11-23T07:02:15;7.35;81.21
64034;SHT31;50280;49.864;8.638;2022-11-23T07:04:49;7.35;81.19
64034;SHT31;50280;49.864;8.638;2022-11-23T07:07:22;7.38;81.08
64034;SHT31;50280;49.864;8.638;2022-11-23T07:09:54;7.38;81.15
64034;SHT31;50280;49.864;8.638;2022-11-23T07:12:27;7.38;80.93
64034;SHT31;50280;49.864;8.638;2022-11-23T07:14:59;7.43;80.86
64034;SHT31;50280;49.864;8.638;2022-11-23T07:17:37;7.40;80.79
64034;SHT31;50280;49.864;8.638;2022-11-23T07:20:12;7.46;80.67
64034;SHT31;50280;49.864;8.638;2022-11-23T07:22:44;7.46;80.73
64034;SHT31;50280;49.864;8.638;2022-11-23T07:25:17;7.46;80.63
64034;SHT31;50280;49.864;8.638;2022-11-23T07:27:54;7.44;80.33
64034;SHT31;50280;49.864;8.638;2022-11-23T07:30:28;7.47;80.34
64034;SHT31;50280;49.864;8.638;2022-11-23T07:33:04;7.52;80.30
64034;SHT31;50280;49.864;8.638;2022-11-23T07:35:41;7.52;80.21
64034;SHT31;50280;49.864;8.638;2022-11-23T07:38:13;7.55;80.04
64034;SHT31;50280;49.864;8.638;2022-11-23T07:40:48;7.58;79.94
64034;SHT31;50280;49.864;8.638;2022-11-23T07:43:21;7.60;79.85
64034;SHT31;50280;49.864;8.638;2022-11-23T07:45:54;7.58;79.70
64034;SHT31;50280;49.864;8.638;2022-11-23T07:48:26;7.60;79.77
64034;SHT31;50280;49.864;8.638;2022-11-23T07:51:00;7.61;79.52
64034;SHT31;50280;49.864;8.638;2022-11-23T07:53:32;7.65;79.35
64034;SHT31;50280;49.864;8.638;2022-11-23T07:56:05;7.62;79.43
64034;SHT31;50280;49.864;8.638;2022-11-23T07:58:38;7.65;79.23
64034;SHT31;50280;49.864;8.638;2022-11-23T08:01:13;7.65;79.09
64034;SHT31;50280;49.864;8.638;2022-11-23T08:03:47;7.65;79.12
64034;SHT31;50280;49.864;8.638;2022-11-23T08:06:21;7.69;78.86
64034;SHT31;50280;49.864;8.638;2022-11-23T08:08:54;7.71;79.07
64034;SHT31;50280;49.864;8.638;2022-11-23T08:11:26;7.72;79.03
64034;SHT31;50280;49.864;8.638;2022-11-23T08:13:59;7.72;78.73
64034;SHT31;50280;49.864;8.638;2022-11-23T08:16:31;7.74;78.63
64034;SHT31;50280;49.864;8.638;2022-11-23T08:19:04;7.74;78.71
64034;SHT31;50280;49.864;8.638;2022-11-23T08:21:38;7.75;78.56
64034;SHT31;50280;49.864;8.638;2022-11-23T08:24:10;7.72;78.51
64034;SHT31;50280;49.864;8.638;2022-11-23T08:26:43;7.72;78.26
64034;SHT31;50280;49.864;8.638;2022-11-23T08:29:16;7.69;78.45
64034;SHT31;50280;49.864;8.638;2022-11-23T08:31:48;7.69;78.27
64034;SHT31;50280;49.864;8.638;2022-11-23T08:34:22;7.71;78.34
64034;SHT31;50280;49.864;8.638;2022-11-23T08:36:56;7.68;78.22
64034;SHT31;50280;49.864;8.638;2022-11-23T08:39:28;7.74;78.12
64034;SHT31;50280;49.864;8.638;2022-11-23T08:42:01;7.72;78.12
64034;SHT31;50280;49.864;8.638;2022-11-23T08:44:33;7.74;77.93
64034;SHT31;50280;49.864;8.638;2022-11-23T08:47:05;7.71;77.89
64034;SHT31;50280;49.864;8.638;2022-11-23T08:49:38;7.77;77.80
64034;SHT31;50280;49.864;8.638;2022-11-23T08:52:12;7.75;77.69
64034;SHT31;50280;49.864;8.638;2022-11-23T08:54:45;7.79;77.83
64034;SHT31;50280;49.864;8.638;2022-11-23T08:57:17;7.83;77.66
64034;SHT31;50280;49.864;8.638;2022-11-23T08:59:50;7.85;77.49
64034;SHT31;50280;49.864;8.638;2022-11-23T09:02:22;7.90;77.27
64034;SHT31;50280;49.864;8.638;2022-11-23T09:04:55;7.93;77.02
64034;SHT31;50280;49.864;8.638;2022-11-23T09:07:29;7.93;76.63
64034;SHT31;50280;49.864;8.638;2022-11-23T09:10:03;7.97;76.67
64034;SHT31;50280;49.864;8.638;2022-11-23T09:12:37;8.03;76.53
64034;SHT31;50280;49.864;8.638;2022-11-23T09:15:10;8.06;76.63
64034;SHT31;50280;49.864;8.638;2022-11-23T09:17:42;8.13;76.22
64034;SHT31;50280;49.864;8.638;2022-11-23T09:20:15;8.19;75.86
64034;SHT31;50280;49.864;8.638;2022-11-23T09:22:53;8.20;75.59
64034;SHT31;50280;49.864;8.638;2022-11-23T09:25:26;8.22;75.44
64034;SHT31;50280;49.864;8.638;2022-11-23T09:27:59;8.23;75.29
64034;SHT31;50280;49.864;8.638;2022-11-23T09:30:31;8.27;75.46
64034;SHT31;50280;49.864;8.638;2022-11-23T09:33:03;8.29;75.51
64034;SHT31;50280;49.864;8.638;2022-11-23T09:35:36;8.34;74.99
64034;SHT31;50280;49.864;8.638;2022-11-23T09:38:09;8.38;74.55
64034;SHT31;50280;49.864;8.638;2022-11-23T09:40:42;8.45;74.72
64034;SHT31;50280;49.864;8.638;2022-11-23T09:43:39;8.60;74.36
64034;SHT31;50280;49.864;8.638;2022-11-23T09:46:35;8.72;74.01
64034;SHT31;50280;49.864;8.638;2022-11-23T09:49:20;8.82;73.70
64034;SHT31;50280;49.864;8.638;2022-11-23T09:52:01;8.95;73.46
64034;SHT31;50280;49.864;8.638;2022-11-23T09:54:36;9.09;72.54
64034;SHT31;50280;49.864;8.638;2022-11-23T09:57:13;9.20;71.88
64034;SHT31;50280;49.864;8.638;2022-11-23T09:59:53;9.30;71.43
64034;SHT31;50280;49.864;8.638;2022-11-23T10:02:35;9.41;71.44
64034;SHT31;50280;49.864;8.638;2022-11-23T10:05:16;9.54;71.02
64034;SHT31;50280;49.864;8.638;2022-11-23T10:08:03;9.71;70.23
64034;SHT31;50280;49.864;8.638;2022-11-23T10:10:56;9.83;69.54
64034;SHT31;50280;49.864;8.638;2022-11-23T10:14:02;9.95;69.11
64034;SHT31;50280;49.864;8.638;2022-11-23T10:16:55;10.00;69.04
64034;SHT31;50280;49.864;8.638;2022-11-23T10:19:50;10.12;68.71
64034;SHT31;50280;49.864;8.638;2022-11-23T10:22:51;10.27;68.42
64034;SHT31;50280;49.864;8.638;2022-11-23T10:25:33;10.37;67.64
64034;SHT31;50280;49.864;8.638;2022-11-23T10:28:20;10.40;67.17
64034;SHT31;50280;49.864;8.638;2022-11-23T10:30:59;10.38;67.00
64034;SHT31;50280;49.864;8.638;2022-11-23T10:33:48;10.40;67.11
64034;SHT31;50280;49.864;8.638;2022-11-23T10:36:29;10.52;66.82
64034;SHT31;50280;49.864;8.638;2022-11-23T10:39:16;10.65;66.15
64034;SHT31;50280;49.864;8.638;2022-11-23T10:41:58;10.78;65.87
64034;SHT31;50280;49.864;8.638;2022-11-23T10:44:41;10.88;65.88
64034;SHT31;50280;49.864;8.638;2022-11-23T10:47:33;11.02;65.05
64034;SHT31;50280;49.864;8.638;2022-11-23T10:50:21;11.16;64.55
64034;SHT31;50280;49.864;8.638;2022-11-23T10:53:00;11.37;63.68
64034;SHT31;50280;49.864;8.638;2022-11-23T10:55:53;11.57;63.41
64034;SHT31;50280;49.864;8.638;2022-11-23T10:58:31;11.74;62.66
64034;SHT31;50280;49.864;8.638;2022-11-23T11:01:16;11.90;62.27
64034;SHT31;50280;49.864;8.638;2022-11-23T11:03:54;12.06;59.85
64034;SHT31;50280;49.864;8.638;2022-11-23T11:06:33;12.10;60.49
64034;SHT31;50280;49.864;8.638;2022-11-23T11:09:17;12.24;58.18
64034;SHT31;50280;49.864;8.638;2022-11-23T11:11:52;12.17;58.67
64034;SHT31;50280;49.864;8.638;2022-11-23T11:14:24;12.16;59.24
64034;SHT31;50280;49.864;8.638;2022-11-23T11:16:58;12.17;59.28
64034;SHT31;50280;49.864;8.638;2022-11-23T11:19:31;12.26;59.13
64034;SHT31;50280;49.864;8.638;2022-11-23T11:22:26;12.34;58.71
64034;SHT31;50280;49.864;8.638;2022-11-23T11:25:06;12.41;58.42
64034;SHT31;50280;49.864;8.638;2022-11-23T11:27:59;12.41;57.73
64034;SHT31;50280;49.864;8.638;2022-11-23T11:30:42;12.49;58.12
64034;SHT31;50280;49.864;8.638;2022-11-23T11:33:33;12.65;56.56
64034;SHT31;50280;49.864;8.638;2022-11-23T11:36:17;12.76;56.74
64034;SHT31;50280;49.864;8.638;2022-11-23T11:38:53;12.66;57.04
64034;SHT31;50280;49.864;8.638;2022-11-23T11:41:34;12.75;57.33
64034;SHT31;50280;49.864;8.638;2022-11-23T11:44:15;12.79;56.02
64034;SHT31;50280;49.864;8.638;2022-11-23T11:46:58;12.73;55.97
64034;SHT31;50280;49.864;8.638;2022-11-23T11:49:43;12.71;56.12
64034;SHT31;50280;49.864;8.638;2022-11-23T11:52:21;12.78;56.07
64034;SHT31;50280;49.864;8.638;2022-11-23T11:55:05;12.83;55.23
64034;SHT31;50280;49.864;8.638;2022-11-23T11:57:53;12.72;54.98
64034;SHT31;50280;49.864;8.638;2022-11-23T12:00:35;12.61;55.81
64034;SHT31;50280;49.864;8.638;2022-11-23T12:03:17;12.65;55.50
64034;SHT31;50280;49.864;8.638;2022-11-23T12:06:04;12.73;55.73
64034;SHT31;50280;49.864;8.638;2022-11-23T12:08:48;12.86;55.63
64034;SHT31;50280;49.864;8.638;2022-11-23T12:11:32;13.03;53.33
64034;SHT31;50280;49.864;8.638;2022-11-23T12:14:07;13.13;53.47
64034;SHT31;50280;49.864;8.638;2022-11-23T12:16:50;13.26;53.59
64034;SHT31;50280;49.864;8.638;2022-11-23T12:19:35;13.41;53.47
64034;SHT31;50280;49.864;8.638;2022-11-23T12:22:31;13.71;51.52
64034;SHT31;50280;49.864;8.638;2022-11-23T12:25:26;13.59;50.96
64034;SHT31;50280;49.864;8.638;2022-11-23T12:28:22;13.48;51.47
64034;SHT31;50280;49.864;8.638;2022-11-23T12:31:23;13.64;50.38
64034;SHT31;50280;49.864;8.638;2022-11-23T12:34:27;13.79;50.07
64034;SHT31;50280;49.864;8.638;2022-11-23T12:37:38;13.82;49.82
64034;SHT31;50280;49.864;8.638;2022-11-23T12:40:40;13.90;48.63
64034;SHT31;50280;49.864;8.638;2022-11-23T12:43:43;13.72;47.52
64034;SHT31;50280;49.864;8.638;2022-11-23T12:46:46;13.53;48.31
64034;SHT31;50280;49.864;8.638;2022-11-23T12:49:37;13.53;47.85
64034;SHT31;50280;49.864;8.638;2022-11-23T12:52:29;13.51;47.02
64034;SHT31;50280;49.864;8.638;2022-11-23T12:55:23;13.54;48.09
64034;SHT31;50280;49.864;8.638;2022-11-23T12:58:13;13.66;47.38
64034;SHT31;50280;49.864;8.638;2022-11-23T13:00:56;13.61;47.00
64034;SHT31;50280;49.864;8.638;2022-11-23T13:04:16;13.48;47.83
64034;SHT31;50280;49.864;8.638;2022-11-23T13:07:48;13.47;48.04
64034;SHT31;50280;49.864;8.638;2022-11-23T13:10:55;13.55;46.53
64034;SHT31;50280;49.864;8.638;2022-11-23T13:13:49;13.54;46.87
64034;SHT31;50280;49.864;8.638;2022-11-23T13:16:48;13.55;46.72
64034;SHT31;50280;49.864;8.638;2022-11-23T13:19:53;13.57;47.03
64034;SHT31;50280;49.864;8.638;2022-11-23T13:22:48;13.51;47.11
64034;SHT31;50280;49.864;8.638;2022-11-23T13:25:24;13.53;47.34
64034;SHT31;50280;49.864;8.638;2022-11-23T13:28:01;13.43;48.16
64034;SHT31;50280;49.864;8.638;2022-11-23T13:30:36;13.36;47.72
64034;SHT31;50280;49.864;8.638;2022-11-23T13:33:25;13.37;48.56
64034;SHT31;50280;49.864;8.638;2022-11-23T13:36:09;13.55;48.30
64034;SHT31;50280;49.864;8.638;2022-11-23T13:38:44;13.57;48.09
64034;SHT31;50280;49.864;8.638;2022-11-23T13:44:31;13.59;48.30
64034;SHT31;50280;49.864;8.638;2022-11-23T13:47:18;13.51;48.96
64034;SHT31;50280;49.864;8.638;2022-11-23T13:49:52;13.43;49.18
64034;SHT31;50280;49.864;8.638;2022-11-23T13:52:48;13.36;49.36
64034;SHT31;50280;49.864;8.638;2022-11-23T13:55:30;13.30;49.85
64034;SHT31;50280;49.864;8.638;2022-11-23T13:58:38;13.36;49.29
64034;SHT31;50280;49.864;8.638;2022-11-23T14:08:27;13.95;48.13
64034;SHT31;50280;49.864;8.638;2022-11-23T14:11:10;14.09;47.75
64034;SHT31;50280;49.864;8.638;2022-11-23T14:13:51;14.33;46.15
64034;SHT31;50280;49.864;8.638;2022-11-23T14:16:46;14.42;46.30
64034;SHT31;50280;49.864;8.638;2022-11-23T14:20:04;14.67;46.34
64034;SHT31;50280;49.864;8.638;2022-11-23T14:23:10;14.88;45.79
64034;SHT31;50280;49.864;8.638;2022-11-23T14:26:23;15.00;44.56
64034;SHT31;50280;49.864;8.638;2022-11-23T14:29:27;14.99;44.38
64034;SHT31;50280;49.864;8.638;2022-11-23T14:32:37;14.71;44.96
64034;SHT31;50280;49.864;8.638;2022-11-23T14:35:27;14.38;46.00
64034;SHT31;50280;49.864;8.638;2022-11-23T14:38:33;14.05;46.99
64034;SHT31;50280;49.864;8.638;2022-11-23T14:41:31;13.81;47.98
64034;SHT31;50280;49.864;8.638;2022-11-23T14:44:11;13.66;48.56
64034;SHT31;50280;49.864;8.638;2022-11-23T14:46:58;13.58;49.05
64034;SHT31;50280;49.864;8.638;2022-11-23T14:49:32;13.45;49.61
64034;SHT31;50280;49.864;8.638;2022-11-23T14:52:05;13.27;50.08
64034;SHT31;50280;49.864;8.638;2022-11-23T14:54:37;12.97;50.62
64034;SHT31;50280;49.864;8.638;2022-11-23T14:57:12;12.65;51.78
64034;SHT31;50280;49.864;8.638;2022-11-23T14:59:48;12.37;52.79
64034;SHT31;50280;49.864;8.638;2022-11-23T15:02:32;12.09;53.88
64034;SHT31;50280;49.864;8.638;2022-11-23T15:05:11;11.78;55.12
64034;SHT31;50280;49.864;8.638;2022-11-23T15:07:53;11.57;56.00
64034;SHT31;50280;49.864;8.638;2022-11-23T15:10:41;11.38;56.75
64034;SHT31;50280;49.864;8.638;2022-11-23T15:13:25;11.20;57.37
64034;SHT31;50280;49.864;8.638;2022-11-23T15:16:02;11.04;58.32
64034;SHT31;50280;49.864;8.638;2022-11-23T15:18:36;10.91;58.73
64034;SHT31;50280;49.864;8.638;2022-11-23T15:21:16;10.76;59.04
64034;SHT31;50280;49.864;8.638;2022-11-23T15:23:53;10.68;59.53
64034;SHT31;50280;49.864;8.638;2022-11-23T15:26:29;10.58;59.81
64034;SHT31;50280;49.864;8.638;2022-11-23T15:29:25;10.48;60.26
64034;SHT31;50280;49.864;8.638;2022-11-23T15:32:20;10.37;60.65
64034;SHT31;50280;49.864;8.638;2022-11-23T15:34:59;10.29;60.92
64034;SHT31;50280;49.864;8.638;2022-11-23T15:37:40;10.24;60.78
64034;SHT31;50280;49.864;8.638;2022-11-23T15:40:17;10.16;60.86
64034;SHT31;50280;49.864;8.638;2022-11-23T15:42:50;10.10;61.26
64034;SHT31;50280;49.864;8.638;2022-11-23T15:45:34;10.04;61.51
64034;SHT31;50280;49.864;8.638;2022-11-23T15:48:13;10.02;61.34
64034;SHT31;50280;49.864;8.638;2022-11-23T15:50:51;9.93;61.23
64034;SHT31;50280;49.864;8.638;2022-11-23T15:53:27;9.92;61.66
64034;SHT31;50280;49.864;8.638;2022-11-23T15:56:04;9.85;61.58
64034;SHT31;50280;49.864;8.638;2022-11-23T15:58:52;9.81;61.74
64034;SHT31;50280;49.864;8.638;2022-11-23T16:01:27;9.78;61.28
64034;SHT31;50280;49.864;8.638;2022-11-23T16:04:00;9.76;61.25
64034;SHT31;50280;49.864;8.638;2022-11-23T16:06:35;9.69;61.17
64034;SHT31;50280;49.864;8.638;2022-11-23T16:09:33;9.72;61.06
